createdAt,value
2017-10-10T00:00:49.218Z,12.1
2017-10-10T00:01:50.289Z,12.2
2017-10-10T00:02:51.009Z,12.2
2017-10-10T00:03:51.848Z,12.1
2017-10-10T00:04:52.582Z,12.1
2017-10-10T00:05:53.420Z,12.1
2017-10-10T00:06:54.566Z,12.1
2017-10-10T00:07:55.299Z,12.1
2017-10-10T00:08:56.033Z,12.1
2017-10-10T00:09:56.817Z,12.1
2017-10-10T00:10:57.547Z,12.2
2017-10-10T00:11:58.444Z,12.2
2017-10-10T00:12:59.188Z,12.1
2017-10-10T00:13:59.968Z,12.1
2017-10-10T00:15:00.773Z,12.1
2017-10-10T00:16:01.578Z,12.1
2017-10-10T00:17:02.353Z,12.1
2017-10-10T00:18:03.141Z,12.2
2017-10-10T00:19:03.929Z,12.1
2017-10-10T00:20:04.657Z,12.0
2017-10-10T00:21:05.404Z,12.1
2017-10-10T00:22:06.648Z,12.2
2017-10-10T00:23:07.374Z,12.1
2017-10-10T00:24:08.115Z,12.1
2017-10-10T00:25:08.848Z,12.1
2017-10-10T00:26:09.584Z,12.2
2017-10-10T00:27:10.851Z,12.2
2017-10-10T00:28:11.657Z,12.1
2017-10-10T00:29:12.399Z,12.1
2017-10-10T00:30:13.240Z,12.2
2017-10-10T00:31:14.041Z,12.2
2017-10-10T00:32:14.887Z,12.1
2017-10-10T00:33:15.611Z,12.1
2017-10-10T00:34:16.347Z,12.1
2017-10-10T00:35:17.088Z,12.1
2017-10-10T00:36:17.818Z,12.1
2017-10-10T00:37:18.677Z,12.1
2017-10-10T00:38:19.410Z,12.1
2017-10-10T00:39:20.209Z,12.1
2017-10-10T00:40:20.951Z,12.2
2017-10-10T00:41:21.759Z,12.1
2017-10-10T00:42:22.818Z,12.2
2017-10-10T00:43:23.567Z,12.1
2017-10-10T00:44:24.350Z,12.2
2017-10-10T00:45:25.159Z,12.1
2017-10-10T00:46:25.896Z,12.1
2017-10-10T00:47:27.017Z,12.1
2017-10-10T00:48:27.747Z,12.2
2017-10-10T00:49:28.477Z,12.1
2017-10-10T00:50:29.278Z,12.1
2017-10-10T00:51:30.010Z,12.1
2017-10-10T00:52:31.063Z,12.1
2017-10-10T00:53:31.789Z,12.1
2017-10-10T00:54:32.531Z,12.1
2017-10-10T00:55:33.337Z,12.2
2017-10-10T00:56:34.119Z,12.1
2017-10-10T00:57:34.909Z,12.1
2017-10-10T00:58:35.691Z,12.1
2017-10-10T00:59:36.428Z,12.1
2017-10-10T01:00:37.564Z,12.1
2017-10-10T01:01:38.293Z,12.1
2017-10-10T01:02:39.075Z,12.1
2017-10-10T01:03:39.838Z,12.1
2017-10-10T01:04:40.574Z,12.1
2017-10-10T01:05:41.399Z,12.1
2017-10-10T01:06:42.141Z,12.1
2017-10-10T01:07:42.950Z,12.2
2017-10-10T01:08:43.760Z,12.2
2017-10-10T01:09:44.496Z,12.1
2017-10-10T01:10:45.615Z,12.0
2017-10-10T01:11:46.362Z,12.2
2017-10-10T01:12:47.131Z,12.1
2017-10-10T01:13:47.930Z,12.1
2017-10-10T01:14:48.660Z,12.1
2017-10-10T01:15:49.783Z,12.1
2017-10-10T01:16:50.553Z,12.1
2017-10-10T01:17:51.360Z,12.1
2017-10-10T01:18:52.089Z,12.1
2017-10-10T01:19:52.836Z,12.1
2017-10-10T01:20:53.712Z,12.1
2017-10-10T01:21:54.450Z,12.0
2017-10-10T01:22:55.184Z,12.1
2017-10-10T01:23:55.970Z,11.9
2017-10-10T01:24:56.697Z,12.0
2017-10-10T01:25:57.591Z,12.0
2017-10-10T01:26:58.402Z,12.0
2017-10-10T01:27:59.132Z,12.0
2017-10-10T01:28:59.955Z,12.0
2017-10-10T01:30:00.692Z,12.0
2017-10-10T01:31:01.829Z,12.0
2017-10-10T01:32:02.570Z,12.0
2017-10-10T01:33:03.302Z,12.0
2017-10-10T01:34:04.045Z,12.0
2017-10-10T01:35:04.845Z,12.0
2017-10-10T01:36:05.629Z,12.0
2017-10-10T01:37:06.390Z,12.0
2017-10-10T01:38:07.113Z,12.0
2017-10-10T01:39:07.939Z,12.0
2017-10-10T01:40:08.734Z,12.0
2017-10-10T01:41:09.506Z,12.1
2017-10-10T01:42:10.296Z,12.0
2017-10-10T01:43:11.030Z,12.0
2017-10-10T01:44:11.710Z,12.1
2017-10-10T01:45:12.444Z,12.1
2017-10-10T01:46:13.230Z,12.1
2017-10-10T01:47:13.961Z,12.0
2017-10-10T01:48:14.691Z,12.0
2017-10-10T01:49:15.500Z,11.9
2017-10-10T01:50:16.322Z,12.0
2017-10-10T01:51:17.473Z,12.0
2017-10-10T01:52:18.271Z,12.0
2017-10-10T01:53:19.107Z,12.0
2017-10-10T01:54:19.763Z,12.0
2017-10-10T01:55:20.565Z,11.9
2017-10-10T01:56:21.650Z,12.0
2017-10-10T01:57:22.443Z,11.9
2017-10-10T01:58:23.243Z,12.0
2017-10-10T01:59:24.059Z,11.9
2017-10-10T02:00:24.866Z,12.0
2017-10-10T02:01:25.991Z,11.9
2017-10-10T02:02:26.723Z,11.9
2017-10-10T02:03:27.463Z,11.9
2017-10-10T02:04:28.259Z,11.9
2017-10-10T02:05:29.041Z,12.0
2017-10-10T02:06:29.866Z,11.9
2017-10-10T02:07:30.680Z,11.9
2017-10-10T02:08:31.412Z,11.9
2017-10-10T02:09:32.141Z,11.9
2017-10-10T02:10:32.945Z,12.0
2017-10-10T02:11:34.090Z,11.9
2017-10-10T02:12:34.825Z,11.9
2017-10-10T02:13:35.552Z,11.9
2017-10-10T02:14:36.364Z,11.9
2017-10-10T02:15:37.166Z,11.9
2017-10-10T02:16:38.248Z,11.9
2017-10-10T02:17:38.979Z,11.8
2017-10-10T02:18:39.713Z,11.8
2017-10-10T02:19:40.449Z,11.8
2017-10-10T02:20:41.239Z,11.8
2017-10-10T02:21:42.409Z,11.8
2017-10-10T02:22:43.145Z,11.9
2017-10-10T02:23:43.886Z,11.8
2017-10-10T02:24:44.678Z,11.9
2017-10-10T02:25:45.406Z,11.8
2017-10-10T02:26:46.558Z,11.9
2017-10-10T02:27:47.347Z,11.8
2017-10-10T02:28:48.125Z,11.8
2017-10-10T02:29:48.927Z,11.9
2017-10-10T02:30:49.654Z,11.9
2017-10-10T02:31:50.754Z,11.8
2017-10-10T02:32:51.523Z,11.9
2017-10-10T02:33:52.250Z,11.9
2017-10-10T02:34:52.982Z,11.8
2017-10-10T02:35:53.730Z,11.9
2017-10-10T02:36:54.824Z,11.9
2017-10-10T02:37:55.587Z,11.9
2017-10-10T02:38:56.365Z,11.9
2017-10-10T02:39:57.161Z,11.9
2017-10-10T02:40:57.961Z,11.9
2017-10-10T02:41:59.078Z,11.8
2017-10-10T02:42:59.845Z,11.8
2017-10-10T02:44:00.664Z,11.9
2017-10-10T02:45:01.432Z,11.8
2017-10-10T02:46:02.203Z,11.9
2017-10-10T02:47:02.981Z,11.9
2017-10-10T02:48:03.711Z,11.8
2017-10-10T02:49:04.439Z,11.8
2017-10-10T02:50:05.169Z,11.8
2017-10-10T02:51:05.902Z,11.8
2017-10-10T02:52:07.065Z,11.8
2017-10-10T02:53:07.883Z,11.8
2017-10-10T02:54:08.681Z,11.8
2017-10-10T02:55:09.486Z,11.8
2017-10-10T02:56:10.261Z,11.9
2017-10-10T02:57:11.014Z,11.9
2017-10-10T02:58:11.898Z,11.8
2017-10-10T02:59:12.630Z,11.8
2017-10-10T03:00:13.442Z,11.8
2017-10-10T03:01:14.175Z,11.8
2017-10-10T03:02:14.898Z,11.8
2017-10-10T03:03:15.933Z,11.9
2017-10-10T03:04:16.739Z,12.0
2017-10-10T03:05:17.525Z,11.8
2017-10-10T03:06:18.339Z,11.7
2017-10-10T03:07:19.007Z,11.9
2017-10-10T03:08:19.793Z,11.9
2017-10-10T03:09:20.606Z,11.9
2017-10-10T03:10:21.401Z,11.8
2017-10-10T03:11:22.168Z,11.9
2017-10-10T03:12:22.907Z,11.9
2017-10-10T03:13:24.016Z,11.9
2017-10-10T03:14:24.806Z,11.8
2017-10-10T03:15:25.482Z,11.9
2017-10-10T03:16:26.213Z,11.9
2017-10-10T03:17:27.022Z,11.9
2017-10-10T03:18:28.122Z,11.9
2017-10-10T03:19:28.851Z,11.9
2017-10-10T03:20:29.602Z,11.9
2017-10-10T03:21:30.333Z,11.9
2017-10-10T03:22:31.138Z,11.9
2017-10-10T03:23:32.273Z,11.9
2017-10-10T03:24:33.013Z,11.9
2017-10-10T03:25:33.807Z,11.9
2017-10-10T03:26:34.521Z,11.9
2017-10-10T03:27:35.248Z,12.0
2017-10-10T03:28:36.285Z,12.0
2017-10-10T03:29:37.024Z,11.9
2017-10-10T03:30:37.809Z,11.9
2017-10-10T03:31:38.606Z,11.9
2017-10-10T03:32:39.411Z,11.9
2017-10-10T03:33:40.191Z,11.9
2017-10-10T03:34:40.930Z,11.9
2017-10-10T03:35:41.650Z,11.8
2017-10-10T03:36:42.467Z,11.9
2017-10-10T03:37:43.259Z,11.9
2017-10-10T03:38:44.004Z,11.9
2017-10-10T03:39:44.739Z,11.9
2017-10-10T03:40:45.484Z,11.8
2017-10-10T03:41:46.387Z,11.9
2017-10-10T03:42:47.150Z,11.9
2017-10-10T03:43:47.959Z,11.9
2017-10-10T03:44:48.755Z,11.9
2017-10-10T03:45:49.497Z,11.8
2017-10-10T03:46:50.331Z,11.9
2017-10-10T03:47:51.142Z,11.9
2017-10-10T03:48:51.864Z,11.9
2017-10-10T03:49:52.650Z,11.9
2017-10-10T03:50:53.405Z,12.0
2017-10-10T03:51:54.489Z,11.9
2017-10-10T03:52:55.225Z,11.9
2017-10-10T03:53:56.009Z,11.9
2017-10-10T03:54:56.734Z,11.9
2017-10-10T03:55:57.472Z,12.0
2017-10-10T03:56:58.500Z,11.9
2017-10-10T03:57:59.263Z,11.9
2017-10-10T03:59:00.077Z,12.0
2017-10-10T04:00:00.819Z,11.9
2017-10-10T04:01:01.618Z,12.0
2017-10-10T04:02:02.355Z,11.9
2017-10-10T04:03:03.448Z,12.0
2017-10-10T04:04:04.167Z,11.9
2017-10-10T04:05:04.909Z,12.0
2017-10-10T04:06:05.639Z,11.9
2017-10-10T04:07:06.443Z,11.9
2017-10-10T04:08:07.576Z,11.9
2017-10-10T04:09:08.383Z,11.9
2017-10-10T04:10:09.149Z,11.9
2017-10-10T04:11:09.961Z,12.0
2017-10-10T04:12:10.753Z,12.0
2017-10-10T04:13:11.573Z,12.0
2017-10-10T04:14:12.380Z,12.0
2017-10-10T04:15:13.408Z,11.9
2017-10-10T04:16:14.134Z,12.0
2017-10-10T04:17:14.870Z,12.0
2017-10-10T04:18:15.670Z,12.0
2017-10-10T04:19:16.481Z,12.0
2017-10-10T04:20:17.508Z,11.9
2017-10-10T04:21:18.235Z,12.0
2017-10-10T04:22:19.033Z,12.0
2017-10-10T04:23:19.765Z,12.0
2017-10-10T04:24:20.486Z,11.9
2017-10-10T04:25:21.521Z,12.0
2017-10-10T04:26:22.249Z,12.0
2017-10-10T04:27:22.976Z,12.0
2017-10-10T04:28:23.715Z,12.0
2017-10-10T04:29:24.468Z,11.9
2017-10-10T04:30:25.898Z,12.0
2017-10-10T04:31:26.627Z,12.0
2017-10-10T04:32:27.361Z,12.0
2017-10-10T04:33:28.091Z,12.0
2017-10-10T04:34:28.826Z,12.0
2017-10-10T04:35:29.858Z,12.0
2017-10-10T04:36:30.666Z,12.0
2017-10-10T04:37:31.389Z,12.0
2017-10-10T04:38:32.112Z,11.9
2017-10-10T04:39:32.828Z,12.0
2017-10-10T04:40:33.912Z,12.0
2017-10-10T04:41:34.636Z,12.0
2017-10-10T04:42:35.370Z,12.0
2017-10-10T04:43:36.101Z,12.0
2017-10-10T04:44:36.915Z,12.0
2017-10-10T04:45:37.710Z,11.9
2017-10-10T04:46:38.479Z,12.0
2017-10-10T04:47:39.202Z,12.0
2017-10-10T04:48:39.930Z,12.0
2017-10-10T04:49:40.650Z,12.0
2017-10-10T04:50:41.850Z,12.0
2017-10-10T04:51:42.579Z,12.0
2017-10-10T04:52:43.324Z,11.9
2017-10-10T04:53:44.056Z,12.0
2017-10-10T04:54:44.856Z,11.9
2017-10-10T04:55:45.943Z,12.0
2017-10-10T04:56:46.701Z,12.0
2017-10-10T04:57:47.445Z,11.9
2017-10-10T04:58:48.254Z,12.0
2017-10-10T04:59:49.051Z,12.0
2017-10-10T05:00:49.896Z,12.0
2017-10-10T05:01:50.619Z,12.0
2017-10-10T05:02:51.346Z,12.0
2017-10-10T05:03:52.085Z,12.0
2017-10-10T05:04:52.851Z,12.0
2017-10-10T05:05:53.880Z,12.0
2017-10-10T05:06:54.607Z,12.0
2017-10-10T05:07:55.351Z,12.0
2017-10-10T05:08:56.102Z,12.0
2017-10-10T05:09:56.899Z,12.0
2017-10-10T05:10:57.978Z,12.0
2017-10-10T05:11:58.786Z,12.0
2017-10-10T05:12:59.528Z,12.0
2017-10-10T05:14:00.320Z,12.0
2017-10-10T05:15:01.160Z,12.0
2017-10-10T05:16:01.950Z,12.1
2017-10-10T05:17:02.681Z,12.1
2017-10-10T05:18:03.458Z,12.0
2017-10-10T05:19:04.191Z,12.1
2017-10-10T05:20:04.998Z,12.1
2017-10-10T05:21:05.862Z,12.0
2017-10-10T05:22:06.679Z,12.0
2017-10-10T05:23:07.452Z,12.0
2017-10-10T05:24:08.252Z,11.9
2017-10-10T05:25:08.990Z,12.1
2017-10-10T05:26:10.123Z,12.1
2017-10-10T05:27:10.850Z,12.1
2017-10-10T05:28:11.579Z,12.1
2017-10-10T05:29:12.360Z,12.1
2017-10-10T05:30:13.091Z,12.1
2017-10-10T05:31:14.130Z,12.1
2017-10-10T05:32:14.862Z,12.1
2017-10-10T05:33:15.601Z,12.1
2017-10-10T05:34:16.327Z,12.1
2017-10-10T05:35:17.058Z,12.1
2017-10-10T05:36:18.576Z,12.1
2017-10-10T05:37:19.354Z,12.1
2017-10-10T05:38:20.153Z,12.1
2017-10-10T05:39:20.933Z,12.1
2017-10-10T05:40:21.666Z,12.1
2017-10-10T05:41:22.473Z,12.1
2017-10-10T05:42:23.247Z,12.1
2017-10-10T05:43:23.994Z,12.1
2017-10-10T05:44:24.782Z,12.2
2017-10-10T05:45:25.509Z,12.1
2017-10-10T05:46:26.420Z,12.1
2017-10-10T05:47:27.149Z,12.1
2017-10-10T05:48:27.970Z,12.1
2017-10-10T05:49:28.702Z,12.2
2017-10-10T05:50:29.431Z,12.2
2017-10-10T05:51:30.565Z,12.2
2017-10-10T05:52:31.366Z,12.2
2017-10-10T05:53:32.094Z,12.1
2017-10-10T05:54:32.903Z,12.2
2017-10-10T05:55:33.700Z,12.1
2017-10-10T05:56:34.858Z,12.1
2017-10-10T05:57:35.632Z,12.2
2017-10-10T05:58:36.373Z,12.2
2017-10-10T05:59:37.102Z,12.2
2017-10-10T06:00:37.948Z,12.2
2017-10-10T06:01:39.061Z,12.2
2017-10-10T06:02:39.803Z,12.1
2017-10-10T06:03:40.527Z,12.1
2017-10-10T06:04:41.263Z,12.1
2017-10-10T06:05:42.071Z,12.2
2017-10-10T06:06:42.868Z,12.2
2017-10-10T06:07:43.576Z,12.2
2017-10-10T06:08:44.361Z,12.1
2017-10-10T06:09:45.089Z,12.2
2017-10-10T06:10:45.913Z,12.1
2017-10-10T06:11:47.006Z,12.1
2017-10-10T06:12:47.772Z,12.2
2017-10-10T06:13:48.533Z,12.2
2017-10-10T06:14:49.303Z,12.2
2017-10-10T06:15:50.042Z,12.2
2017-10-10T06:16:50.801Z,12.3
2017-10-10T06:17:51.870Z,12.2
2017-10-10T06:18:52.606Z,12.3
2017-10-10T06:19:53.355Z,12.2
2017-10-10T06:20:54.090Z,12.3
2017-10-10T06:21:54.893Z,12.3
2017-10-10T06:22:56.058Z,12.3
2017-10-10T06:23:56.798Z,12.3
2017-10-10T06:24:57.548Z,12.3
2017-10-10T06:25:58.278Z,12.3
2017-10-10T06:26:59.014Z,12.3
2017-10-10T06:28:00.125Z,12.3
2017-10-10T06:29:00.939Z,12.3
2017-10-10T06:30:01.661Z,12.3
2017-10-10T06:31:02.483Z,12.3
2017-10-10T06:32:03.221Z,12.3
2017-10-10T06:33:04.290Z,12.3
2017-10-10T06:34:05.012Z,12.3
2017-10-10T06:35:05.738Z,12.3
2017-10-10T06:36:06.507Z,12.3
2017-10-10T06:37:07.318Z,12.3
2017-10-10T06:38:08.426Z,12.3
2017-10-10T06:39:10.443Z,12.3
2017-10-10T06:40:12.521Z,12.3
2017-10-10T06:41:14.519Z,12.3
2017-10-10T06:42:16.617Z,12.3
2017-10-10T06:43:17.600Z,12.3
2017-10-10T06:44:18.423Z,12.3
2017-10-10T06:45:19.568Z,12.3
2017-10-10T06:46:20.345Z,12.3
2017-10-10T06:47:21.086Z,12.3
2017-10-10T06:48:21.894Z,12.3
2017-10-10T06:49:22.630Z,12.4
2017-10-10T06:50:23.685Z,12.3
2017-10-10T06:51:24.515Z,12.3
2017-10-10T06:52:25.248Z,12.2
2017-10-10T06:53:26.041Z,12.2
2017-10-10T06:54:26.773Z,12.3
2017-10-10T06:55:27.901Z,12.3
2017-10-10T06:56:28.708Z,12.3
2017-10-10T06:57:29.545Z,12.3
2017-10-10T06:58:30.275Z,12.3
2017-10-10T06:59:31.080Z,12.3
2017-10-10T07:00:32.116Z,12.3
2017-10-10T07:01:32.858Z,12.3
2017-10-10T07:02:33.639Z,12.3
2017-10-10T07:03:34.375Z,12.3
2017-10-10T07:04:35.114Z,12.4
2017-10-10T07:05:36.225Z,12.3
2017-10-10T07:06:36.966Z,12.4
2017-10-10T07:07:37.782Z,12.3
2017-10-10T07:08:38.526Z,12.4
2017-10-10T07:09:39.256Z,12.3
2017-10-10T07:10:40.386Z,12.3
2017-10-10T07:11:41.119Z,12.3
2017-10-10T07:12:41.870Z,12.4
2017-10-10T07:13:42.675Z,12.4
2017-10-10T07:14:43.409Z,12.4
2017-10-10T07:15:44.472Z,12.4
2017-10-10T07:16:45.216Z,12.4
2017-10-10T07:17:45.943Z,12.4
2017-10-10T07:18:46.674Z,12.4
2017-10-10T07:19:47.416Z,12.5
2017-10-10T07:20:48.585Z,12.4
2017-10-10T07:21:49.322Z,12.5
2017-10-10T07:22:50.076Z,12.5
2017-10-10T07:23:50.794Z,12.5
2017-10-10T07:24:51.530Z,12.5
2017-10-10T07:25:52.662Z,12.5
2017-10-10T07:26:53.469Z,12.5
2017-10-10T07:27:54.206Z,12.5
2017-10-10T07:28:54.965Z,12.5
2017-10-10T07:29:55.693Z,12.5
2017-10-10T07:30:56.783Z,12.5
2017-10-10T07:31:57.569Z,12.4
2017-10-10T07:32:58.414Z,12.4
2017-10-10T07:33:59.203Z,12.5
2017-10-10T07:34:59.992Z,12.3
2017-10-10T07:36:00.795Z,12.4
2017-10-10T07:37:01.525Z,12.4
2017-10-10T07:38:02.298Z,12.4
2017-10-10T07:39:03.020Z,12.5
2017-10-10T07:40:03.764Z,12.5
2017-10-10T07:41:04.954Z,12.5
2017-10-10T07:42:05.699Z,12.5
2017-10-10T07:43:06.464Z,12.4
2017-10-10T07:44:07.193Z,12.5
2017-10-10T07:45:07.923Z,12.5
2017-10-10T07:46:08.658Z,12.5
2017-10-10T07:47:09.420Z,12.5
2017-10-10T07:48:10.206Z,12.5
2017-10-10T07:49:10.946Z,12.5
2017-10-10T07:50:11.692Z,12.5
2017-10-10T07:51:12.434Z,12.5
2017-10-10T07:52:13.158Z,12.6
2017-10-10T07:53:14.349Z,12.5
2017-10-10T07:54:15.088Z,12.5
2017-10-10T07:55:15.818Z,12.6
2017-10-10T07:56:16.536Z,12.6
2017-10-10T07:57:17.281Z,12.6
2017-10-10T07:58:18.111Z,12.6
2017-10-10T07:59:18.868Z,12.6
2017-10-10T08:00:19.616Z,12.6
2017-10-10T08:01:20.347Z,12.6
2017-10-10T08:02:21.086Z,12.6
2017-10-10T08:03:22.132Z,12.6
2017-10-10T08:04:22.903Z,12.6
2017-10-10T08:05:23.747Z,12.6
2017-10-10T08:06:24.570Z,12.7
2017-10-10T08:07:25.344Z,12.7
2017-10-10T08:08:26.209Z,12.7
2017-10-10T08:09:26.948Z,12.7
2017-10-10T08:10:27.764Z,12.8
2017-10-10T08:11:28.574Z,12.8
2017-10-10T08:12:29.283Z,12.8
2017-10-10T08:13:30.491Z,12.8
2017-10-10T08:14:31.242Z,12.8
2017-10-10T08:15:31.979Z,12.9
2017-10-10T08:16:32.716Z,12.8
2017-10-10T08:17:33.451Z,12.9
2017-10-10T08:18:34.193Z,12.9
2017-10-10T08:19:34.934Z,13.0
2017-10-10T08:20:35.669Z,12.9
2017-10-10T08:21:36.464Z,12.9
2017-10-10T08:22:37.263Z,12.8
2017-10-10T08:23:38.323Z,12.9
2017-10-10T08:24:39.052Z,12.9
2017-10-10T08:25:39.783Z,13.0
2017-10-10T08:26:40.574Z,12.9
2017-10-10T08:27:41.304Z,12.9
2017-10-10T08:28:42.032Z,13.0
2017-10-10T08:29:42.845Z,12.9
2017-10-10T08:30:43.634Z,12.9
2017-10-10T08:31:44.365Z,13.0
2017-10-10T08:32:45.111Z,13.0
2017-10-10T08:33:45.893Z,13.0
2017-10-10T08:34:46.669Z,12.9
2017-10-10T08:35:47.403Z,12.9
2017-10-10T08:36:48.203Z,12.9
2017-10-10T08:37:48.933Z,12.9
2017-10-10T08:38:49.661Z,12.9
2017-10-10T08:39:50.582Z,13.0
2017-10-10T08:40:51.313Z,13.0
2017-10-10T08:41:52.049Z,12.9
2017-10-10T08:42:52.788Z,13.0
2017-10-10T08:43:53.532Z,12.9
2017-10-10T08:44:54.667Z,13.0
2017-10-10T08:45:55.413Z,12.9
2017-10-10T08:46:56.148Z,13.0
2017-10-10T08:47:56.887Z,13.1
2017-10-10T08:48:57.661Z,13.0
2017-10-10T08:49:58.491Z,13.0
2017-10-10T08:50:59.219Z,12.9
2017-10-10T08:51:59.939Z,13.0
2017-10-10T08:53:00.680Z,13.0
2017-10-10T08:54:01.454Z,12.9
2017-10-10T08:55:02.616Z,13.0
2017-10-10T08:56:03.358Z,13.0
2017-10-10T08:57:04.092Z,13.1
2017-10-10T08:58:04.834Z,13.1
2017-10-10T08:59:05.615Z,13.2
2017-10-10T09:00:06.413Z,13.0
2017-10-10T09:01:07.193Z,13.1
2017-10-10T09:02:07.924Z,13.1
2017-10-10T09:03:08.663Z,13.0
2017-10-10T09:04:09.405Z,13.0
2017-10-10T09:05:10.234Z,13.1
2017-10-10T09:06:10.963Z,13.1
2017-10-10T09:07:11.697Z,13.1
2017-10-10T09:08:12.432Z,13.1
2017-10-10T09:09:13.247Z,13.1
2017-10-10T09:10:13.987Z,13.0
2017-10-10T09:11:14.725Z,13.0
2017-10-10T09:12:15.901Z,13.0
2017-10-10T09:13:16.721Z,13.1
2017-10-10T09:14:17.450Z,13.1
2017-10-10T09:15:18.267Z,13.1
2017-10-10T09:16:19.006Z,13.1
2017-10-10T09:17:20.175Z,13.1
2017-10-10T09:18:20.967Z,13.0
2017-10-10T09:19:21.761Z,13.1
2017-10-10T09:20:22.499Z,13.2
2017-10-10T09:21:23.235Z,13.2
2017-10-10T09:22:24.453Z,13.3
2017-10-10T09:23:25.198Z,13.3
2017-10-10T09:24:25.996Z,13.3
2017-10-10T09:25:26.787Z,13.3
2017-10-10T09:26:27.553Z,13.4
2017-10-10T09:27:28.331Z,13.4
2017-10-10T09:28:29.428Z,13.3
2017-10-10T09:29:30.169Z,13.4
2017-10-10T09:30:30.906Z,13.3
2017-10-10T09:31:31.644Z,13.3
2017-10-10T09:32:32.428Z,13.4
2017-10-10T09:33:33.512Z,13.3
2017-10-10T09:34:34.292Z,13.3
2017-10-10T09:35:35.087Z,13.3
2017-10-10T09:36:35.820Z,13.4
2017-10-10T09:37:36.550Z,13.4
2017-10-10T09:38:37.639Z,13.3
2017-10-10T09:39:38.380Z,13.3
2017-10-10T09:40:39.118Z,13.3
2017-10-10T09:41:39.910Z,13.2
2017-10-10T09:42:40.695Z,13.2
2017-10-10T09:43:41.867Z,13.2
2017-10-10T09:44:42.611Z,13.2
2017-10-10T09:45:43.369Z,13.2
2017-10-10T09:46:44.114Z,13.3
2017-10-10T09:47:44.919Z,13.2
2017-10-10T09:48:46.130Z,13.2
2017-10-10T09:49:46.873Z,13.3
2017-10-10T09:50:47.684Z,13.4
2017-10-10T09:51:48.471Z,13.4
2017-10-10T09:52:49.212Z,13.4
2017-10-10T09:53:50.316Z,13.5
2017-10-10T09:54:51.051Z,13.5
2017-10-10T09:55:51.809Z,13.5
2017-10-10T09:56:52.636Z,13.5
2017-10-10T09:57:53.378Z,13.5
2017-10-10T09:58:54.512Z,13.5
2017-10-10T09:59:55.280Z,13.6
2017-10-10T10:00:56.012Z,13.6
2017-10-10T10:01:56.766Z,13.6
2017-10-10T10:02:57.499Z,13.6
2017-10-10T10:03:58.334Z,13.6
2017-10-10T10:04:59.067Z,13.5
2017-10-10T10:05:59.800Z,13.6
2017-10-10T10:07:00.534Z,13.6
2017-10-10T10:08:01.275Z,13.6
2017-10-10T10:09:02.109Z,13.7
2017-10-10T10:10:02.901Z,13.7
2017-10-10T10:11:03.709Z,13.6
2017-10-10T10:12:04.444Z,13.6
2017-10-10T10:13:05.259Z,13.6
2017-10-10T10:14:06.407Z,13.8
2017-10-10T10:15:07.077Z,13.8
2017-10-10T10:16:07.824Z,13.8
2017-10-10T10:17:08.555Z,14.0
2017-10-10T10:18:09.307Z,14.0
2017-10-10T10:19:10.469Z,14.1
2017-10-10T10:20:11.220Z,14.1
2017-10-10T10:21:11.958Z,14.1
2017-10-10T10:22:12.684Z,13.9
2017-10-10T10:23:13.432Z,14.0
2017-10-10T10:24:14.278Z,14.0
2017-10-10T10:25:15.060Z,14.0
2017-10-10T10:26:15.804Z,14.0
2017-10-10T10:27:16.635Z,14.1
2017-10-10T10:28:17.416Z,14.1
2017-10-10T10:29:18.559Z,14.1
2017-10-10T10:30:19.297Z,14.1
2017-10-10T10:31:20.039Z,14.2
2017-10-10T10:32:20.779Z,14.2
2017-10-10T10:33:21.591Z,14.3
2017-10-10T10:34:22.495Z,14.2
2017-10-10T10:35:23.237Z,14.3
2017-10-10T10:36:24.060Z,14.4
2017-10-10T10:37:24.786Z,14.4
2017-10-10T10:38:25.612Z,14.4
2017-10-10T10:39:26.831Z,14.3
2017-10-10T10:40:27.576Z,14.3
2017-10-10T10:41:28.359Z,14.4
2017-10-10T10:42:29.184Z,14.3
2017-10-10T10:43:29.963Z,14.4
2017-10-10T10:44:30.746Z,14.3
2017-10-10T10:45:31.570Z,14.4
2017-10-10T10:46:32.395Z,14.4
2017-10-10T10:47:33.180Z,14.5
2017-10-10T10:48:33.921Z,14.6
2017-10-10T10:49:34.713Z,14.6
2017-10-10T10:50:35.522Z,14.5
2017-10-10T10:51:36.345Z,14.6
2017-10-10T10:52:37.091Z,14.5
2017-10-10T10:53:37.830Z,14.5
2017-10-10T10:54:39.040Z,14.4
2017-10-10T10:55:39.790Z,14.5
2017-10-10T10:56:40.540Z,14.5
2017-10-10T10:57:41.276Z,14.5
2017-10-10T10:58:42.009Z,14.6
2017-10-10T10:59:43.169Z,14.5
2017-10-10T11:00:43.921Z,14.7
2017-10-10T11:01:44.730Z,14.9
2017-10-10T11:02:45.465Z,14.9
2017-10-10T11:03:46.246Z,14.9
2017-10-10T11:04:47.329Z,14.9
2017-10-10T11:05:48.061Z,14.8
2017-10-10T11:06:48.785Z,14.9
2017-10-10T11:07:49.531Z,15.1
2017-10-10T11:08:50.276Z,15.2
2017-10-10T11:09:51.007Z,15.0
2017-10-10T11:10:51.741Z,15.0
2017-10-10T11:11:52.470Z,15.1
2017-10-10T11:12:53.211Z,15.1
2017-10-10T11:13:54.303Z,15.1
2017-10-10T11:14:55.118Z,15.2
2017-10-10T11:15:55.888Z,15.3
2017-10-10T11:16:56.630Z,15.3
2017-10-10T11:17:57.375Z,15.3
2017-10-10T11:18:58.519Z,15.4
2017-10-10T11:19:59.260Z,15.4
2017-10-10T11:21:00.000Z,15.5
2017-10-10T11:22:00.799Z,15.5
2017-10-10T11:23:01.584Z,15.6
2017-10-10T11:24:02.391Z,15.5
2017-10-10T11:25:03.108Z,15.6
2017-10-10T11:26:04.200Z,15.6
2017-10-10T11:27:04.943Z,15.6
2017-10-10T11:28:05.680Z,15.8
2017-10-10T11:29:06.501Z,15.7
2017-10-10T11:30:07.240Z,15.7
2017-10-10T11:31:08.437Z,15.8
2017-10-10T11:32:09.629Z,15.7
2017-10-10T11:33:10.575Z,15.7
2017-10-10T11:34:12.388Z,15.6
2017-10-10T11:35:13.471Z,15.7
2017-10-10T11:36:14.627Z,15.8
2017-10-10T11:37:15.368Z,15.8
2017-10-10T11:38:16.135Z,15.8
2017-10-10T11:39:16.958Z,15.9
2017-10-10T11:40:17.707Z,16.0
2017-10-10T11:41:18.494Z,15.9
2017-10-10T11:42:19.314Z,16.1
2017-10-10T11:44:34.831Z,15.9
2017-10-10T11:45:35.521Z,16.1
2017-10-10T11:46:36.611Z,16.2
2017-10-10T11:47:37.440Z,16.3
2017-10-10T11:48:38.233Z,16.4
2017-10-10T11:49:38.975Z,16.5
2017-10-10T11:50:39.792Z,16.4
2017-10-10T11:51:40.932Z,16.3
2017-10-10T11:52:41.680Z,16.2
2017-10-10T11:53:42.480Z,16.1
2017-10-10T11:54:43.270Z,16.0
2017-10-10T11:55:44.015Z,15.9
2017-10-10T11:56:45.049Z,15.7
2017-10-10T11:57:45.784Z,15.5
2017-10-10T11:58:46.597Z,15.4
2017-10-10T11:59:47.362Z,15.3
2017-10-10T12:00:48.185Z,15.4
2017-10-10T12:01:49.276Z,15.4
2017-10-10T12:02:50.090Z,15.4
2017-10-10T12:03:50.829Z,15.4
2017-10-10T12:04:51.569Z,15.4
2017-10-10T12:05:52.384Z,15.3
2017-10-10T12:06:53.219Z,15.3
2017-10-10T12:07:54.114Z,15.3
2017-10-10T12:08:54.849Z,15.3
2017-10-10T12:09:55.594Z,15.4
2017-10-10T12:10:56.333Z,15.3
2017-10-10T12:11:57.393Z,15.5
2017-10-10T12:12:58.069Z,15.6
2017-10-10T12:13:58.804Z,15.7
2017-10-10T12:14:59.525Z,15.7
2017-10-10T12:16:00.329Z,15.8
2017-10-10T12:17:01.180Z,15.8
2017-10-10T12:18:01.925Z,15.9
2017-10-10T12:19:02.672Z,15.8
2017-10-10T12:20:03.456Z,15.9
2017-10-10T12:21:04.196Z,15.8
2017-10-10T12:22:05.294Z,15.7
2017-10-10T12:23:06.044Z,15.6
2017-10-10T12:24:06.844Z,15.5
2017-10-10T12:25:07.595Z,15.5
2017-10-10T12:26:08.336Z,15.4
2017-10-10T12:27:09.480Z,15.5
2017-10-10T12:28:10.225Z,15.6
2017-10-10T12:29:11.041Z,15.5
2017-10-10T12:30:11.771Z,15.4
2017-10-10T12:31:12.508Z,15.4
2017-10-10T12:32:13.690Z,15.5
2017-10-10T12:33:14.438Z,15.5
2017-10-10T12:34:15.240Z,15.4
2017-10-10T12:35:15.985Z,15.3
2017-10-10T12:36:16.724Z,15.3
2017-10-10T12:37:17.534Z,15.3
2017-10-10T12:38:18.348Z,15.3
2017-10-10T12:39:20.141Z,15.2
2017-10-10T12:40:21.182Z,15.2
2017-10-10T12:41:21.972Z,15.1
2017-10-10T12:42:22.764Z,15.1
2017-10-10T12:43:23.799Z,15.0
2017-10-10T12:44:24.592Z,15.0
2017-10-10T12:45:25.329Z,14.9
2017-10-10T12:46:26.084Z,15.0
2017-10-10T12:47:26.839Z,14.9
2017-10-10T12:48:27.925Z,14.9
2017-10-10T12:49:28.707Z,15.0
2017-10-10T12:50:29.459Z,15.0
2017-10-10T12:51:30.183Z,14.9
2017-10-10T12:52:30.954Z,15.1
2017-10-10T12:53:31.987Z,15.2
2017-10-10T12:54:32.815Z,15.0
2017-10-10T12:55:33.851Z,15.1
2017-10-10T12:56:34.541Z,15.1
2017-10-10T12:57:35.359Z,15.3
2017-10-10T12:58:36.165Z,15.3
2017-10-10T12:59:36.916Z,15.3
2017-10-10T13:00:37.694Z,15.2
2017-10-10T13:01:38.706Z,15.3
2017-10-10T13:02:39.421Z,15.4
2017-10-10T13:03:40.551Z,15.4
2017-10-10T13:04:41.321Z,15.4
2017-10-10T13:05:42.133Z,15.3
2017-10-10T13:06:42.941Z,15.3
2017-10-10T13:07:43.749Z,15.5
2017-10-10T13:08:44.914Z,15.4
2017-10-10T13:09:45.729Z,15.4
2017-10-10T13:10:46.541Z,15.6
2017-10-10T13:11:47.275Z,15.6
2017-10-10T13:12:48.063Z,15.6
2017-10-10T13:13:49.163Z,15.6
2017-10-10T13:14:49.966Z,15.6
2017-10-10T13:15:50.783Z,15.5
2017-10-10T13:16:51.513Z,15.5
2017-10-10T13:17:52.313Z,15.5
2017-10-10T13:18:53.045Z,15.4
2017-10-10T13:19:53.945Z,15.4
2017-10-10T13:20:54.778Z,15.2
2017-10-10T13:21:55.577Z,15.2
2017-10-10T13:22:56.319Z,15.2
2017-10-10T13:23:57.132Z,15.1
2017-10-10T13:24:58.289Z,15.0
2017-10-10T13:25:59.075Z,15.0
2017-10-10T13:26:59.804Z,15.0
2017-10-10T13:28:00.538Z,14.9
2017-10-10T13:29:01.289Z,14.9
2017-10-10T13:30:02.163Z,14.8
2017-10-10T13:31:02.913Z,14.8